Time,TemperatureF,DewpointF,PressureIn,WindDirection,WindDirectionDegrees,WindSpeedMPH,WindSpeedGustMPH,Humidity,HourlyPrecipIn,Conditions,Clouds,dailyrainin,SolarRadiationWatts/m^2,SoftwareType,DateUTC
2014-01-08 00:02:00,-1.0,-11.0,-100.00,WNW,292,7.0,16.0,63,0.00,,,0.00,0.000000,,2014-01-08 05:02:00,
2014-01-08 00:43:00,-1.0,-11.0,-100.00,WNW,299,7.0,19.0,63,0.00,,,0.00,0.000000,,2014-01-08 05:43:00,
2014-01-08 00:53:00,-1.0,-11.0,-100.00,WNW,299,7.0,19.0,63,0.00,,,0.00,0.000000,,2014-01-08 05:53:00,
2014-01-08 01:02:00,-1.0,-11.0,-100.00,WNW,299,7.0,19.0,63,0.00,,,0.00,0.000000,,2014-01-08 06:02:00,
2014-01-08 01:43:00,0.0,-10.0,-100.00,WNW,301,8.0,20.0,63,0.00,,,0.00,0.000000,,2014-01-08 06:43:00,
2014-01-08 01:53:00,0.0,-10.0,-100.00,WNW,301,8.0,20.0,63,0.00,,,0.00,0.000000,,2014-01-08 06:53:00,
2014-01-08 02:02:00,0.0,-10.0,-100.00,WNW,301,8.0,20.0,63,0.00,,,0.00,0.000000,,2014-01-08 07:02:00,
2014-01-08 02:42:00,0.0,-9.0,-100.00,WNW,298,8.0,16.0,65,0.00,,,0.00,0.000000,,2014-01-08 07:42:00,
2014-01-08 02:53:00,0.0,-9.0,-100.00,WNW,298,8.0,16.0,65,0.00,,,0.00,0.000000,,2014-01-08 07:53:00,
2014-01-08 03:02:00,0.0,-9.0,-100.00,WNW,298,8.0,16.0,65,0.00,,,0.00,0.000000,,2014-01-08 08:02:00,
2014-01-08 03:43:00,0.0,-9.0,-100.00,WNW,303,5.0,17.0,65,0.00,,,0.00,0.000000,,2014-01-08 08:43:00,
2014-01-08 03:53:00,0.0,-9.0,-100.00,WNW,303,5.0,17.0,65,0.00,,,0.00,0.000000,,2014-01-08 08:53:00,
2014-01-08 04:02:00,0.0,-9.0,-100.00,WNW,303,5.0,17.0,65,0.00,,,0.00,0.000000,,2014-01-08 09:02:00,
2014-01-08 04:44:00,1.0,-8.0,-100.00,WNW,295,4.0,14.0,66,0.00,,,0.00,0.000000,,2014-01-08 09:44:00,
2014-01-08 04:54:00,1.0,-8.0,-100.00,WNW,295,4.0,14.0,66,0.00,,,0.00,0.000000,,2014-01-08 09:54:00,
2014-01-08 05:03:00,1.0,-8.0,-100.00,WNW,295,4.0,14.0,66,0.00,,,0.00,0.000000,,2014-01-08 10:03:00,
2014-01-08 05:43:00,1.0,-8.0,-100.00,NW,307,5.0,11.0,66,0.00,,,0.00,0.000000,,2014-01-08 10:43:00,
2014-01-08 05:53:00,1.0,-8.0,-100.00,NW,307,5.0,11.0,66,0.00,,,0.00,0.000000,,2014-01-08 10:53:00,
2014-01-08 06:02:00,1.0,-8.0,-100.00,NW,307,5.0,11.0,66,0.00,,,0.00,0.000000,,2014-01-08 11:02:00,
2014-01-08 06:43:00,1.0,-7.0,-100.00,WNW,297,3.0,10.0,67,0.00,,,0.00,0.000000,,2014-01-08 11:43:00,
2014-01-08 06:53:00,1.0,-7.0,-100.00,WNW,297,3.0,10.0,67,0.00,,,0.00,0.000000,,2014-01-08 11:53:00,
2014-01-08 07:02:00,1.0,-7.0,-100.00,WNW,297,3.0,10.0,67,0.00,,,0.00,0.000000,,2014-01-08 12:02:00,
2014-01-08 07:43:00,1.0,-7.0,-100.00,WNW,295,3.0,9.0,68,0.00,,,0.00,0.000000,,2014-01-08 12:43:00,
2014-01-08 07:52:00,1.0,-7.0,-100.00,WNW,295,3.0,9.0,68,0.00,,,0.00,0.000000,,2014-01-08 12:52:00,
2014-01-08 08:02:00,1.0,-7.0,-100.00,WNW,295,3.0,9.0,68,0.00,,,0.00,0.000000,,2014-01-08 13:02:00,
2014-01-08 08:42:00,3.0,-6.0,-100.00,WNW,298,5.0,14.0,64,0.00,,,0.00,11.000000,,2014-01-08 13:42:00,
2014-01-08 08:52:00,3.0,-6.0,-100.00,WNW,298,5.0,14.0,64,0.00,,,0.00,11.000000,,2014-01-08 13:52:00,
2014-01-08 09:02:00,3.0,-6.0,-100.00,WNW,298,5.0,14.0,64,0.00,,,0.00,11.000000,,2014-01-08 14:02:00,
2014-01-08 09:42:00,9.0,-3.0,-100.00,WNW,292,6.0,14.0,58,0.00,,,0.00,129.000000,,2014-01-08 14:42:00,
2014-01-08 09:54:00,9.0,-3.0,-100.00,WNW,292,6.0,14.0,58,0.00,,,0.00,129.000000,,2014-01-08 14:54:00,
2014-01-08 10:02:00,9.0,-3.0,-100.00,WNW,292,6.0,14.0,58,0.00,,,0.00,129.000000,,2014-01-08 15:02:00,
2014-01-08 10:43:00,9.0,-3.0,-100.00,WNW,291,4.0,14.0,56,0.00,,,0.00,115.000000,,2014-01-08 15:43:00,
2014-01-08 10:54:00,9.0,-3.0,-100.00,WNW,291,4.0,14.0,56,0.00,,,0.00,115.000000,,2014-01-08 15:54:00,
2014-01-08 11:04:00,9.0,-3.0,-100.00,WNW,291,4.0,14.0,56,0.00,,,0.00,115.000000,,2014-01-08 16:04:00,
2014-01-08 11:43:00,11.0,-4.0,-100.00,WNW,293,5.0,13.0,49,0.00,,,0.00,164.000000,,2014-01-08 16:43:00,
2014-01-08 11:53:00,11.0,-4.0,-100.00,WNW,293,5.0,13.0,49,0.00,,,0.00,164.000000,,2014-01-08 16:53:00,
2014-01-08 12:03:00,11.0,-4.0,-100.00,WNW,293,5.0,13.0,49,0.00,,,0.00,164.000000,,2014-01-08 17:03:00,
2014-01-08 12:43:00,13.0,-4.0,-100.00,WNW,284,4.0,12.0,46,0.00,,,0.00,128.000000,,2014-01-08 17:43:00,
2014-01-08 12:52:00,13.0,-4.0,-100.00,WNW,284,4.0,12.0,46,0.00,,,0.00,128.000000,,2014-01-08 17:52:00,
2014-01-08 13:02:00,13.0,-4.0,-100.00,WNW,284,4.0,12.0,46,0.00,,,0.00,128.000000,,2014-01-08 18:02:00,
2014-01-08 13:42:00,14.0,-4.0,-100.00,WNW,297,4.0,12.0,43,0.00,,,0.00,154.000000,,2014-01-08 18:42:00,
2014-01-08 13:52:00,14.0,-4.0,-100.00,WNW,297,4.0,12.0,43,0.00,,,0.00,154.000000,,2014-01-08 18:52:00,
2014-01-08 14:02:00,14.0,-4.0,-100.00,WNW,297,4.0,12.0,43,0.00,,,0.00,154.000000,,2014-01-08 19:02:00,
2014-01-08 14:43:00,18.0,-1.0,-100.00,WSW,255,4.0,9.0,42,0.00,,,0.00,201.000000,,2014-01-08 19:43:00,
2014-01-08 14:53:00,18.0,-1.0,-100.00,WSW,255,4.0,9.0,42,0.00,,,0.00,201.000000,,2014-01-08 19:53:00,
2014-01-08 15:02:00,18.0,-1.0,-100.00,WSW,255,4.0,9.0,42,0.00,,,0.00,201.000000,,2014-01-08 20:02:00,
2014-01-08 15:42:00,16.0,-4.0,-100.00,West,261,5.0,10.0,40,0.00,,,0.00,210.000000,,2014-01-08 20:42:00,
2014-01-08 15:52:00,16.0,-4.0,-100.00,West,261,5.0,10.0,40,0.00,,,0.00,210.000000,,2014-01-08 20:52:00,
2014-01-08 16:02:00,16.0,-4.0,-100.00,West,261,5.0,10.0,40,0.00,,,0.00,210.000000,,2014-01-08 21:02:00,
2014-01-08 16:43:00,16.0,-3.0,-100.00,WNW,282,4.0,10.0,42,0.00,,,0.00,96.000000,,2014-01-08 21:43:00,
2014-01-08 16:53:00,16.0,-3.0,-100.00,WNW,282,4.0,10.0,42,0.00,,,0.00,96.000000,,2014-01-08 21:53:00,
2014-01-08 17:03:00,16.0,-3.0,-100.00,WNW,282,4.0,10.0,42,0.00,,,0.00,96.000000,,2014-01-08 22:03:00,
2014-01-08 17:43:00,15.0,-1.0,-100.00,WSW,257,3.0,7.0,48,0.00,,,0.00,23.000000,,2014-01-08 22:43:00,
2014-01-08 17:52:00,15.0,-1.0,-100.00,WSW,257,3.0,7.0,48,0.00,,,0.00,23.000000,,2014-01-08 22:52:00,
2014-01-08 18:02:00,15.0,-1.0,-100.00,WSW,257,3.0,7.0,48,0.00,,,0.00,23.000000,,2014-01-08 23:02:00,
2014-01-08 18:42:00,15.0,1.0,-100.00,West,275,2.0,7.0,52,0.00,,,0.00,0.000000,,2014-01-08 23:42:00,
2014-01-08 18:53:00,15.0,1.0,-100.00,West,275,2.0,7.0,52,0.00,,,0.00,0.000000,,2014-01-08 23:53:00,
2014-01-08 19:02:00,15.0,1.0,-100.00,West,275,2.0,7.0,52,0.00,,,0.00,0.000000,,2014-01-09 00:02:00,
2014-01-08 19:42:00,15.0,1.0,-100.00,West,272,2.0,4.0,54,0.00,,,0.00,0.000000,,2014-01-09 00:42:00,
2014-01-08 19:52:00,15.0,1.0,-100.00,West,272,2.0,4.0,54,0.00,,,0.00,0.000000,,2014-01-09 00:52:00,
2014-01-08 20:02:00,15.0,1.0,-100.00,West,272,2.0,4.0,54,0.00,,,0.00,0.000000,,2014-01-09 01:02:00,
2014-01-08 20:42:00,16.0,2.0,-100.00,West,275,2.0,4.0,54,0.00,,,0.00,0.000000,,2014-01-09 01:42:00,
2014-01-08 20:52:00,16.0,2.0,-100.00,West,275,2.0,4.0,54,0.00,,,0.00,0.000000,,2014-01-09 01:52:00,
2014-01-08 21:02:00,16.0,2.0,-100.00,West,275,2.0,4.0,54,0.00,,,0.00,0.000000,,2014-01-09 02:02:00,
2014-01-08 21:52:00,16.0,3.0,-100.00,NW,318,1.0,4.0,56,0.00,,,0.00,0.000000,,2014-01-09 02:52:00,
2014-01-08 22:02:00,16.0,3.0,-100.00,NW,318,1.0,4.0,56,0.00,,,0.00,0.000000,,2014-01-09 03:02:00,
2014-01-08 22:43:00,15.0,4.0,-100.00,WNW,300,2.0,5.0,60,0.00,,,0.00,0.000000,,2014-01-09 03:43:00,
2014-01-08 23:43:00,14.0,7.0,-100.00,West,276,2.0,5.0,72,0.00,,,0.00,0.000000,,2014-01-09 04:43:00,
2014-01-08 23:53:00,14.0,7.0,-100.00,West,276,2.0,5.0,72,0.00,,,0.00,0.000000,,2014-01-09 04:53:00,